createdAt,value
2022-10-01T00:02:30.565Z,6.70
2022-10-01T00:07:45.104Z,6.70
2022-10-01T00:12:51.075Z,6.50
2022-10-01T00:17:56.647Z,6.30
2022-10-01T00:23:02.012Z,6.20
2022-10-01T00:28:08.226Z,6.30
2022-10-01T00:33:14.467Z,6.20
2022-10-01T00:38:19.662Z,6.10
2022-10-01T00:43:31.844Z,6.20
2022-10-01T00:48:40.437Z,6.10
2022-10-01T00:53:47.868Z,5.50
2022-10-01T00:58:54.841Z,5.50
2022-10-01T01:04:00.652Z,5.60
2022-10-01T01:09:05.536Z,5.60
2022-10-01T01:14:34.061Z,5.30
2022-10-01T01:19:55.429Z,5.30
2022-10-01T01:25:03.966Z,5.40
2022-10-01T01:30:12.680Z,5.20
2022-10-01T01:35:23.770Z,5.00
2022-10-01T01:40:32.787Z,4.90
2022-10-01T01:45:40.621Z,4.80
2022-10-01T01:50:49.768Z,4.80
2022-10-01T01:55:57.312Z,5.10
2022-10-01T02:01:04.519Z,5.00
2022-10-01T02:06:18.685Z,4.90
2022-10-01T02:11:29.953Z,5.00
2022-10-01T02:16:50.903Z,4.90
2022-10-01T02:22:01.993Z,4.80
2022-10-01T02:27:16.185Z,4.80
2022-10-01T02:32:22.362Z,4.70
2022-10-01T02:37:28.904Z,4.60
2022-10-01T02:42:36.810Z,4.80
2022-10-01T02:47:46.310Z,4.80
2022-10-01T02:52:54.577Z,4.60
2022-10-01T02:58:00.089Z,4.70
2022-10-01T03:03:07.151Z,4.60
2022-10-01T03:08:12.138Z,4.20
2022-10-01T03:13:19.714Z,4.40
2022-10-01T03:18:26.231Z,3.90
2022-10-01T03:23:31.646Z,4.20
2022-10-01T03:28:36.785Z,4.40
2022-10-01T03:33:42.203Z,4.30
2022-10-01T03:38:47.526Z,4.30
2022-10-01T03:43:55.060Z,4.20
2022-10-01T03:49:01.361Z,4.30
2022-10-01T03:54:09.273Z,4.00
2022-10-01T03:59:15.441Z,3.90
2022-10-01T04:04:23.051Z,3.90
2022-10-01T04:09:28.493Z,4.00
2022-10-01T04:14:34.392Z,3.70
2022-10-01T04:19:40.673Z,3.70
2022-10-01T04:24:46.707Z,3.90
2022-10-01T04:29:51.904Z,3.80
2022-10-01T04:34:57.054Z,3.80
2022-10-01T04:40:02.994Z,3.80
2022-10-01T04:45:10.243Z,3.80
2022-10-01T04:50:17.024Z,3.80
2022-10-01T04:55:24.179Z,3.80
2022-10-01T05:00:30.662Z,3.80
2022-10-01T05:05:37.892Z,3.80
2022-10-01T05:10:43.236Z,3.90
2022-10-01T05:15:52.856Z,3.90
2022-10-01T05:20:58.595Z,3.90
2022-10-01T05:26:05.386Z,3.90
2022-10-01T05:31:10.267Z,4.00
2022-10-01T05:36:15.799Z,4.10
2022-10-01T05:41:21.110Z,4.40
2022-10-01T05:46:26.925Z,4.20
2022-10-01T05:51:33.292Z,4.30
2022-10-01T05:56:39.262Z,4.40
2022-10-01T06:01:44.280Z,4.50
2022-10-01T06:06:50.714Z,4.80
2022-10-01T06:11:56.649Z,5.10
2022-10-01T06:17:01.741Z,5.60
2022-10-01T06:22:07.258Z,6.00
2022-10-01T06:27:13.483Z,6.40
2022-10-01T06:32:20.372Z,7.10
2022-10-01T06:37:25.630Z,7.40
2022-10-01T06:42:31.612Z,7.70
2022-10-01T06:47:37.985Z,8.10
2022-10-01T06:52:49.392Z,9.00
2022-10-01T06:57:58.453Z,9.10
2022-10-01T07:03:11.120Z,9.20
2022-10-01T07:08:18.512Z,9.00
2022-10-01T07:13:24.863Z,8.80
2022-10-01T07:18:30.583Z,8.30
2022-10-01T07:23:37.210Z,8.30
2022-10-01T07:28:43.079Z,8.40
2022-10-01T07:33:48.844Z,8.90
2022-10-01T07:38:54.028Z,9.80
2022-10-01T07:43:59.665Z,10.80
2022-10-01T07:49:05.912Z,11.70
2022-10-01T07:54:14.183Z,12.30
2022-10-01T07:59:19.617Z,13.00
2022-10-01T08:04:42.911Z,13.80
2022-10-01T08:09:49.190Z,14.20
2022-10-01T08:14:54.222Z,14.20
2022-10-01T08:19:59.087Z,13.70
2022-10-01T08:25:05.488Z,13.70
2022-10-01T08:30:11.520Z,13.60
2022-10-01T08:35:16.437Z,13.60
2022-10-01T08:40:22.211Z,14.00
2022-10-01T08:45:39.297Z,14.30
2022-10-01T08:51:02.383Z,13.70
2022-10-01T08:56:10.192Z,13.90
2022-10-01T09:01:15.824Z,13.90
2022-10-01T09:06:25.342Z,14.30
2022-10-01T09:11:45.657Z,14.60
2022-10-01T09:17:07.482Z,15.30
2022-10-01T09:22:34.734Z,15.70
2022-10-01T09:27:41.424Z,14.90
2022-10-01T09:32:52.589Z,14.70
2022-10-01T09:38:18.508Z,14.50
2022-10-01T09:43:26.478Z,14.60
2022-10-01T09:48:50.625Z,14.60
2022-10-01T09:54:17.689Z,14.40
2022-10-01T09:59:28.608Z,14.00
2022-10-01T10:04:34.507Z,13.70
2022-10-01T10:09:41.708Z,13.40
2022-10-01T10:14:47.580Z,13.50
2022-10-01T10:19:53.702Z,13.40
2022-10-01T10:25:02.929Z,13.40
2022-10-01T10:30:17.192Z,13.40
2022-10-01T10:35:29.623Z,13.50
2022-10-01T10:40:45.873Z,13.50
2022-10-01T10:45:54.775Z,13.50
2022-10-01T10:51:03.855Z,13.50
2022-10-01T10:56:13.151Z,13.50
2022-10-01T11:01:21.815Z,13.50
2022-10-01T11:06:27.770Z,13.50
2022-10-01T11:12:03.125Z,13.60
2022-10-01T11:17:41.153Z,13.50
2022-10-01T11:22:58.280Z,13.50
2022-10-01T11:28:18.705Z,13.60
2022-10-01T11:33:28.864Z,13.60
2022-10-01T11:38:40.781Z,13.40
2022-10-01T11:43:49.496Z,13.50
2022-10-01T11:49:03.530Z,13.60
2022-10-01T11:54:11.806Z,13.60
2022-10-01T11:59:22.694Z,13.70
2022-10-01T12:04:42.590Z,13.80
2022-10-01T12:10:00.750Z,13.70
2022-10-01T12:15:26.564Z,13.80
2022-10-01T12:20:37.992Z,13.90
2022-10-01T12:25:55.658Z,13.90
2022-10-01T12:31:16.385Z,13.90
2022-10-01T12:36:46.402Z,14.00
2022-10-01T12:42:16.944Z,14.10
2022-10-01T12:47:42.579Z,14.30
2022-10-01T12:52:57.123Z,14.10
2022-10-01T12:58:13.160Z,13.90
2022-10-01T13:03:25.797Z,13.80
2022-10-01T13:08:37.499Z,13.70
2022-10-01T13:13:43.574Z,13.50
2022-10-01T13:19:03.585Z,13.30
2022-10-01T13:24:46.056Z,13.20
2022-10-01T13:30:03.759Z,12.60
2022-10-01T13:35:36.143Z,12.30
2022-10-01T13:40:42.425Z,12.10
2022-10-01T13:45:50.791Z,11.90
2022-10-01T13:51:14.826Z,11.90
2022-10-01T13:56:37.826Z,11.70
2022-10-01T14:01:43.932Z,11.50
2022-10-01T14:06:55.540Z,11.60
2022-10-01T14:12:27.208Z,11.40
2022-10-01T14:17:36.021Z,11.20
2022-10-01T14:23:04.928Z,11.00
2022-10-01T14:28:28.674Z,11.20
2022-10-01T14:33:57.741Z,11.20
2022-10-01T14:39:16.130Z,11.10
2022-10-01T14:44:43.691Z,11.10
2022-10-01T14:49:52.745Z,10.80
2022-10-01T14:55:11.030Z,10.90
2022-10-01T15:00:22.998Z,10.60
2022-10-01T15:05:33.790Z,10.40
2022-10-01T15:10:42.306Z,10.40
2022-10-01T15:15:47.502Z,10.40
2022-10-01T15:20:57.440Z,10.20
2022-10-01T15:26:06.297Z,10.00
2022-10-01T15:31:13.105Z,10.00
2022-10-01T15:36:20.275Z,9.90
2022-10-01T15:41:32.275Z,9.70
2022-10-01T15:46:37.363Z,9.80
2022-10-01T15:51:49.866Z,9.80
2022-10-01T15:56:55.226Z,9.70
2022-10-01T16:02:01.369Z,9.70
2022-10-01T16:07:07.579Z,9.80
2022-10-01T16:12:23.533Z,9.80
2022-10-01T16:17:37.451Z,9.80
2022-10-01T16:22:43.579Z,9.80
2022-10-01T16:27:50.780Z,10.00
2022-10-01T16:32:56.679Z,9.80
2022-10-01T16:38:02.670Z,9.90
2022-10-01T16:43:09.161Z,10.00
2022-10-01T16:48:19.677Z,10.10
2022-10-01T16:53:26.226Z,10.00
2022-10-01T16:58:31.561Z,10.10
2022-10-01T17:03:37.662Z,10.10
2022-10-01T17:08:42.822Z,10.30
2022-10-01T17:13:47.759Z,10.50
2022-10-01T17:18:53.813Z,10.40
2022-10-01T17:23:58.752Z,10.40
2022-10-01T17:29:06.705Z,10.40
2022-10-01T17:34:13.293Z,10.40
2022-10-01T17:39:18.155Z,10.40
2022-10-01T17:44:24.525Z,10.40
2022-10-01T17:49:30.287Z,10.40
2022-10-01T17:54:39.105Z,10.30
2022-10-01T17:59:44.590Z,10.30
2022-10-01T18:04:50.266Z,10.30
2022-10-01T18:09:56.946Z,10.40
2022-10-01T18:15:03.843Z,10.40
2022-10-01T18:20:10.206Z,10.40
2022-10-01T18:25:21.614Z,10.50
2022-10-01T18:30:27.506Z,10.60
2022-10-01T18:35:35.596Z,10.60
2022-10-01T18:40:45.436Z,10.50
2022-10-01T18:46:02.854Z,10.60
2022-10-01T18:51:24.131Z,10.50
2022-10-01T18:56:35.163Z,10.60
2022-10-01T19:01:43.997Z,10.60
2022-10-01T19:07:03.993Z,10.70
2022-10-01T19:12:43.268Z,10.90
2022-10-01T19:18:03.045Z,11.00
2022-10-01T19:23:23.967Z,11.10
2022-10-01T19:29:06.399Z,11.10
2022-10-01T19:34:21.173Z,11.00
2022-10-01T19:39:30.420Z,11.00
2022-10-01T19:44:51.557Z,11.10
2022-10-01T19:49:59.568Z,11.20
2022-10-01T19:55:06.431Z,11.40
2022-10-01T20:00:22.244Z,11.30
2022-10-01T20:05:48.627Z,11.20
2022-10-01T20:10:56.438Z,11.20
2022-10-01T20:16:20.558Z,11.30
2022-10-01T20:21:49.961Z,11.20
2022-10-01T20:27:05.252Z,11.10
2022-10-01T20:32:43.036Z,11.10
2022-10-01T20:38:17.714Z,11.20
2022-10-01T20:43:43.048Z,11.10
2022-10-01T20:48:52.193Z,11.20
2022-10-01T20:54:00.515Z,11.20
2022-10-01T20:59:15.306Z,11.30
2022-10-01T21:04:23.469Z,11.30
2022-10-01T21:09:37.312Z,11.30
2022-10-01T21:14:54.214Z,11.40
2022-10-01T21:20:20.659Z,11.40
2022-10-01T21:25:38.311Z,11.30
2022-10-01T21:30:58.718Z,11.40
2022-10-01T21:36:20.535Z,11.40
2022-10-01T21:41:48.450Z,11.30
2022-10-01T21:47:05.487Z,11.40
2022-10-01T21:52:20.059Z,11.20
2022-10-01T21:57:48.837Z,11.10
2022-10-01T22:03:23.318Z,11.10
2022-10-01T22:08:59.695Z,11.20
2022-10-01T22:14:08.021Z,11.10
2022-10-01T22:19:16.596Z,11.10
2022-10-01T22:24:34.203Z,11.10
2022-10-01T22:29:45.603Z,11.00
2022-10-01T22:34:56.254Z,11.10
2022-10-01T22:40:04.804Z,11.10
2022-10-01T22:45:17.240Z,11.00
2022-10-01T22:50:42.777Z,10.90
2022-10-01T22:56:08.611Z,10.90
2022-10-01T23:01:36.152Z,10.80
2022-10-01T23:06:47.359Z,10.80
2022-10-01T23:12:01.659Z,10.90
2022-10-01T23:17:12.685Z,11.00
2022-10-01T23:22:26.607Z,11.10
2022-10-01T23:27:34.879Z,11.10
2022-10-01T23:33:08.976Z,11.10
2022-10-01T23:38:35.408Z,11.20
2022-10-01T23:43:48.196Z,11.20
2022-10-01T23:49:08.257Z,11.10
2022-10-01T23:54:38.362Z,11.10
2022-10-01T23:59:50.017Z,11.10
